sensor_id;sensor_type;location;lat;lon;timestamp;temperature;humidity
4201;DHT22;2114;50.398;8.814;2023-03-21T00:01:51;9.30;99.90
4201;DHT22;2114;50.398;8.814;2023-03-21T00:06:53;9.30;99.90
4201;DHT22;2114;50.398;8.814;2023-03-21T00:11:54;9.30;99.90
4201;DHT22;2114;50.398;8.814;2023-03-21T00:16:55;9.20;99.90
4201;DHT22;2114;50.398;8.814;2023-03-21T00:21:57;9.20;99.90
4201;DHT22;2114;50.398;8.814;2023-03-21T00:26:57;9.20;99.90
4201;DHT22;2114;50.398;8.814;2023-03-21T00:31:58;9.20;99.90
4201;DHT22;2114;50.398;8.814;2023-03-21T00:36:59;9.20;99.90
4201;DHT22;2114;50.398;8.814;2023-03-21T00:42:01;9.20;99.90
4201;DHT22;2114;50.398;8.814;2023-03-21T00:47:05;9.10;99.90
4201;DHT22;2114;50.398;8.814;2023-03-21T00:52:08;9.10;99.90
4201;DHT22;2114;50.398;8.814;2023-03-21T00:57:08;9.10;99.90
4201;DHT22;2114;50.398;8.814;2023-03-21T01:02:09;9.00;99.90
4201;DHT22;2114;50.398;8.814;2023-03-21T01:07:13;9.00;99.90
4201;DHT22;2114;50.398;8.814;2023-03-21T01:12:14;9.00;99.90
4201;DHT22;2114;50.398;8.814;2023-03-21T01:17:15;9.10;99.90
4201;DHT22;2114;50.398;8.814;2023-03-21T01:22:15;9.10;99.90
4201;DHT22;2114;50.398;8.814;2023-03-21T01:27:16;9.00;99.90
4201;DHT22;2114;50.398;8.814;2023-03-21T01:32:17;9.10;99.90
4201;DHT22;2114;50.398;8.814;2023-03-21T01:37:17;9.00;99.90
4201;DHT22;2114;50.398;8.814;2023-03-21T01:42:19;9.10;99.90
4201;DHT22;2114;50.398;8.814;2023-03-21T01:47:19;9.00;99.90
4201;DHT22;2114;50.398;8.814;2023-03-21T01:52:25;9.00;99.90
4201;DHT22;2114;50.398;8.814;2023-03-21T01:57:31;9.00;99.90
4201;DHT22;2114;50.398;8.814;2023-03-21T02:02:33;9.00;99.90
4201;DHT22;2114;50.398;8.814;2023-03-21T02:07:37;9.00;99.90
4201;DHT22;2114;50.398;8.814;2023-03-21T02:12:41;8.90;99.90
4201;DHT22;2114;50.398;8.814;2023-03-21T02:23:01;8.90;99.90
4201;DHT22;2114;50.398;8.814;2023-03-21T02:28:23;8.90;99.90
4201;DHT22;2114;50.398;8.814;2023-03-21T02:39:13;8.80;99.90
4201;DHT22;2114;50.398;8.814;2023-03-21T02:44:40;8.70;99.90
4201;DHT22;2114;50.398;8.814;2023-03-21T02:49:57;8.70;99.90
4201;DHT22;2114;50.398;8.814;2023-03-21T02:55:00;8.60;99.90
4201;DHT22;2114;50.398;8.814;2023-03-21T03:00:04;8.60;99.90
4201;DHT22;2114;50.398;8.814;2023-03-21T03:05:20;8.60;99.90
4201;DHT22;2114;50.398;8.814;2023-03-21T03:21:06;8.60;99.90
4201;DHT22;2114;50.398;8.814;2023-03-21T03:26:16;8.50;99.90
4201;DHT22;2114;50.398;8.814;2023-03-21T03:31:26;8.50;99.90
4201;DHT22;2114;50.398;8.814;2023-03-21T03:36:34;8.40;99.90
4201;DHT22;2114;50.398;8.814;2023-03-21T03:41:45;8.40;99.90
4201;DHT22;2114;50.398;8.814;2023-03-21T03:46:55;8.30;99.90
4201;DHT22;2114;50.398;8.814;2023-03-21T03:52:03;8.20;99.90
4201;DHT22;2114;50.398;8.814;2023-03-21T03:57:07;8.20;99.90
4201;DHT22;2114;50.398;8.814;2023-03-21T04:02:08;8.10;99.90
4201;DHT22;2114;50.398;8.814;2023-03-21T04:07:08;8.00;99.90
4201;DHT22;2114;50.398;8.814;2023-03-21T04:12:09;7.90;99.90
4201;DHT22;2114;50.398;8.814;2023-03-21T04:17:09;7.90;99.90
4201;DHT22;2114;50.398;8.814;2023-03-21T04:22:11;7.80;99.90
4201;DHT22;2114;50.398;8.814;2023-03-21T04:27:11;7.70;99.90
4201;DHT22;2114;50.398;8.814;2023-03-21T04:32:13;7.70;99.90
4201;DHT22;2114;50.398;8.814;2023-03-21T04:37:17;7.60;99.90
4201;DHT22;2114;50.398;8.814;2023-03-21T04:42:18;7.40;99.90
4201;DHT22;2114;50.398;8.814;2023-03-21T04:47:18;7.40;99.90
4201;DHT22;2114;50.398;8.814;2023-03-21T04:52:19;7.40;99.90
4201;DHT22;2114;50.398;8.814;2023-03-21T04:57:20;7.40;99.90
4201;DHT22;2114;50.398;8.814;2023-03-21T05:02:21;7.40;99.90
4201;DHT22;2114;50.398;8.814;2023-03-21T05:07:21;7.30;99.90
4201;DHT22;2114;50.398;8.814;2023-03-21T05:12:25;7.30;99.90
4201;DHT22;2114;50.398;8.814;2023-03-21T05:17:26;7.30;99.90
4201;DHT22;2114;50.398;8.814;2023-03-21T05:22:27;7.40;99.90
4201;DHT22;2114;50.398;8.814;2023-03-21T05:27:28;7.40;99.90
4201;DHT22;2114;50.398;8.814;2023-03-21T05:32:35;7.40;99.90
4201;DHT22;2114;50.398;8.814;2023-03-21T05:37:36;7.30;99.90
4201;DHT22;2114;50.398;8.814;2023-03-21T05:42:37;7.30;99.90
4201;DHT22;2114;50.398;8.814;2023-03-21T05:47:38;7.20;99.90
4201;DHT22;2114;50.398;8.814;2023-03-21T05:52:39;7.10;99.90
4201;DHT22;2114;50.398;8.814;2023-03-21T05:57:39;7.00;99.90
4201;DHT22;2114;50.398;8.814;2023-03-21T06:02:40;7.00;99.90
4201;DHT22;2114;50.398;8.814;2023-03-21T06:07:41;6.90;99.90
4201;DHT22;2114;50.398;8.814;2023-03-21T06:12:41;6.80;99.90
4201;DHT22;2114;50.398;8.814;2023-03-21T06:17:42;6.80;99.90
4201;DHT22;2114;50.398;8.814;2023-03-21T06:22:43;6.80;99.90
4201;DHT22;2114;50.398;8.814;2023-03-21T06:27:43;6.80;99.90
4201;DHT22;2114;50.398;8.814;2023-03-21T06:32:44;6.90;99.90
4201;DHT22;2114;50.398;8.814;2023-03-21T06:37:45;6.90;99.90
4201;DHT22;2114;50.398;8.814;2023-03-21T06:42:48;6.90;99.90
4201;DHT22;2114;50.398;8.814;2023-03-21T06:47:49;7.00;99.90
4201;DHT22;2114;50.398;8.814;2023-03-21T06:52:49;7.00;99.90
4201;DHT22;2114;50.398;8.814;2023-03-21T06:57:50;7.10;99.90
4201;DHT22;2114;50.398;8.814;2023-03-21T07:02:51;7.20;99.90
4201;DHT22;2114;50.398;8.814;2023-03-21T07:07:53;7.40;99.90
4201;DHT22;2114;50.398;8.814;2023-03-21T07:12:53;7.50;99.90
4201;DHT22;2114;50.398;8.814;2023-03-21T07:17:54;7.80;99.90
4201;DHT22;2114;50.398;8.814;2023-03-21T07:22:54;8.10;99.90
4201;DHT22;2114;50.398;8.814;2023-03-21T07:27:55;8.20;99.90
4201;DHT22;2114;50.398;8.814;2023-03-21T07:32:56;8.40;99.90
4201;DHT22;2114;50.398;8.814;2023-03-21T07:37:56;8.60;99.90
4201;DHT22;2114;50.398;8.814;2023-03-21T07:42:57;8.80;99.90
4201;DHT22;2114;50.398;8.814;2023-03-21T07:47:57;9.10;99.90
4201;DHT22;2114;50.398;8.814;2023-03-21T07:52:58;9.30;99.90
4201;DHT22;2114;50.398;8.814;2023-03-21T07:58:02;9.40;99.90
4201;DHT22;2114;50.398;8.814;2023-03-21T08:03:03;9.60;99.90
4201;DHT22;2114;50.398;8.814;2023-03-21T08:08:05;9.70;99.90
4201;DHT22;2114;50.398;8.814;2023-03-21T08:13:06;9.80;99.90
4201;DHT22;2114;50.398;8.814;2023-03-21T08:18:07;10.10;99.90
4201;DHT22;2114;50.398;8.814;2023-03-21T08:23:07;10.30;99.90
4201;DHT22;2114;50.398;8.814;2023-03-21T08:28:08;10.60;99.90
4201;DHT22;2114;50.398;8.814;2023-03-21T08:33:09;10.80;99.90
4201;DHT22;2114;50.398;8.814;2023-03-21T08:38:09;11.00;99.90
4201;DHT22;2114;50.398;8.814;2023-03-21T08:43:10;11.10;99.90
4201;DHT22;2114;50.398;8.814;2023-03-21T08:48:11;11.10;99.90
4201;DHT22;2114;50.398;8.814;2023-03-21T08:53:12;11.10;99.90
4201;DHT22;2114;50.398;8.814;2023-03-21T08:58:12;11.10;99.90
4201;DHT22;2114;50.398;8.814;2023-03-21T09:03:13;11.10;99.90
4201;DHT22;2114;50.398;8.814;2023-03-21T09:08:13;11.30;99.90
4201;DHT22;2114;50.398;8.814;2023-03-21T09:13:14;11.50;99.90
4201;DHT22;2114;50.398;8.814;2023-03-21T09:18:15;11.60;99.90
4201;DHT22;2114;50.398;8.814;2023-03-21T09:23:17;11.70;99.90
4201;DHT22;2114;50.398;8.814;2023-03-21T09:28:19;12.10;99.90
4201;DHT22;2114;50.398;8.814;2023-03-21T09:33:20;12.30;99.90
4201;DHT22;2114;50.398;8.814;2023-03-21T09:38:25;12.60;99.90
4201;DHT22;2114;50.398;8.814;2023-03-21T09:43:44;12.50;99.90
4201;DHT22;2114;50.398;8.814;2023-03-21T09:48:56;12.50;99.90
4201;DHT22;2114;50.398;8.814;2023-03-21T09:54:11;12.50;99.90
4201;DHT22;2114;50.398;8.814;2023-03-21T09:59:35;12.40;99.90
4201;DHT22;2114;50.398;8.814;2023-03-21T10:04:37;12.30;99.90
4201;DHT22;2114;50.398;8.814;2023-03-21T10:09:39;12.30;99.90
4201;DHT22;2114;50.398;8.814;2023-03-21T10:14:47;12.30;99.90
4201;DHT22;2114;50.398;8.814;2023-03-21T10:19:56;12.20;99.90
4201;DHT22;2114;50.398;8.814;2023-03-21T10:25:00;12.20;99.90
4201;DHT22;2114;50.398;8.814;2023-03-21T10:30:02;12.30;99.90
4201;DHT22;2114;50.398;8.814;2023-03-21T10:35:11;12.30;99.90
4201;DHT22;2114;50.398;8.814;2023-03-21T10:40:16;12.50;99.90
4201;DHT22;2114;50.398;8.814;2023-03-21T10:45:18;12.70;99.90
4201;DHT22;2114;50.398;8.814;2023-03-21T10:50:21;12.70;99.90
4201;DHT22;2114;50.398;8.814;2023-03-21T10:55:28;12.80;99.90
4201;DHT22;2114;50.398;8.814;2023-03-21T11:00:35;12.80;99.90
4201;DHT22;2114;50.398;8.814;2023-03-21T11:05:38;12.80;99.90
4201;DHT22;2114;50.398;8.814;2023-03-21T11:16:10;12.90;99.90
4201;DHT22;2114;50.398;8.814;2023-03-21T11:21:12;12.80;99.90
4201;DHT22;2114;50.398;8.814;2023-03-21T11:26:20;12.70;99.90
4201;DHT22;2114;50.398;8.814;2023-03-21T11:31:37;12.50;99.90
4201;DHT22;2114;50.398;8.814;2023-03-21T11:36:38;12.30;99.90
4201;DHT22;2114;50.398;8.814;2023-03-21T11:41:40;12.20;99.90
4201;DHT22;2114;50.398;8.814;2023-03-21T11:46:41;12.10;99.90
4201;DHT22;2114;50.398;8.814;2023-03-21T11:57:15;12.20;99.90
4201;DHT22;2114;50.398;8.814;2023-03-21T12:02:38;12.10;99.90
4201;DHT22;2114;50.398;8.814;2023-03-21T12:18:53;12.00;99.90
4201;DHT22;2114;50.398;8.814;2023-03-21T12:34:57;11.90;99.90
4201;DHT22;2114;50.398;8.814;2023-03-21T12:40:26;11.90;99.90
4201;DHT22;2114;50.398;8.814;2023-03-21T12:45:35;11.90;99.90
4201;DHT22;2114;50.398;8.814;2023-03-21T12:50:38;11.90;99.90
4201;DHT22;2114;50.398;8.814;2023-03-21T12:55:40;11.90;99.90
4201;DHT22;2114;50.398;8.814;2023-03-21T13:01:07;11.90;99.90
4201;DHT22;2114;50.398;8.814;2023-03-21T13:06:10;12.00;99.90
4201;DHT22;2114;50.398;8.814;2023-03-21T13:11:21;11.90;99.90
4201;DHT22;2114;50.398;8.814;2023-03-21T13:16:29;11.90;99.90
4201;DHT22;2114;50.398;8.814;2023-03-21T13:26:52;11.70;99.90
4201;DHT22;2114;50.398;8.814;2023-03-21T13:32:06;11.70;99.90
4201;DHT22;2114;50.398;8.814;2023-03-21T13:37:14;11.60;99.90
4201;DHT22;2114;50.398;8.814;2023-03-21T13:42:24;11.50;99.90
4201;DHT22;2114;50.398;8.814;2023-03-21T13:47:55;11.40;99.90
4201;DHT22;2114;50.398;8.814;2023-03-21T14:03:33;11.20;99.90
4201;DHT22;2114;50.398;8.814;2023-03-21T14:08:35;11.30;99.90
4201;DHT22;2114;50.398;8.814;2023-03-21T14:13:35;11.20;99.90
4201;DHT22;2114;50.398;8.814;2023-03-21T14:18:43;11.10;99.90
4201;DHT22;2114;50.398;8.814;2023-03-21T14:23:44;11.10;99.90
4201;DHT22;2114;50.398;8.814;2023-03-21T14:28:48;11.00;99.90
4201;DHT22;2114;50.398;8.814;2023-03-21T14:33:52;11.00;99.90
4201;DHT22;2114;50.398;8.814;2023-03-21T14:39:05;11.00;99.90
4201;DHT22;2114;50.398;8.814;2023-03-21T14:49:19;10.90;99.90
4201;DHT22;2114;50.398;8.814;2023-03-21T14:54:20;10.80;99.90
4201;DHT22;2114;50.398;8.814;2023-03-21T14:59:25;10.80;99.90
4201;DHT22;2114;50.398;8.814;2023-03-21T15:04:27;10.90;99.90
4201;DHT22;2114;50.398;8.814;2023-03-21T15:09:29;10.80;99.90
4201;DHT22;2114;50.398;8.814;2023-03-21T15:14:32;10.70;99.90
4201;DHT22;2114;50.398;8.814;2023-03-21T15:19:37;10.70;99.90
4201;DHT22;2114;50.398;8.814;2023-03-21T15:24:41;10.70;99.90
4201;DHT22;2114;50.398;8.814;2023-03-21T15:29:44;10.70;99.90
4201;DHT22;2114;50.398;8.814;2023-03-21T15:34:45;10.60;99.90
4201;DHT22;2114;50.398;8.814;2023-03-21T15:39:46;10.60;99.90
4201;DHT22;2114;50.398;8.814;2023-03-21T15:44:51;10.60;99.90
4201;DHT22;2114;50.398;8.814;2023-03-21T15:49:53;10.60;99.90
4201;DHT22;2114;50.398;8.814;2023-03-21T15:55:01;10.60;99.90
4201;DHT22;2114;50.398;8.814;2023-03-21T16:10:29;10.80;99.90
4201;DHT22;2114;50.398;8.814;2023-03-21T16:15:31;11.10;99.90
4201;DHT22;2114;50.398;8.814;2023-03-21T16:20:39;11.40;99.90
4201;DHT22;2114;50.398;8.814;2023-03-21T16:25:42;11.40;99.90
4201;DHT22;2114;50.398;8.814;2023-03-21T16:30:43;11.50;99.90
4201;DHT22;2114;50.398;8.814;2023-03-21T16:35:44;11.50;99.90
4201;DHT22;2114;50.398;8.814;2023-03-21T16:40:44;11.50;99.90
4201;DHT22;2114;50.398;8.814;2023-03-21T16:45:45;11.60;99.90
4201;DHT22;2114;50.398;8.814;2023-03-21T16:50:46;11.50;99.90
4201;DHT22;2114;50.398;8.814;2023-03-21T16:55:47;11.50;99.90
4201;DHT22;2114;50.398;8.814;2023-03-21T17:00:48;11.50;99.90
4201;DHT22;2114;50.398;8.814;2023-03-21T17:05:48;11.50;99.90
4201;DHT22;2114;50.398;8.814;2023-03-21T17:10:50;11.40;99.90
4201;DHT22;2114;50.398;8.814;2023-03-21T17:15:50;11.40;99.90
4201;DHT22;2114;50.398;8.814;2023-03-21T17:20:51;11.30;99.90
4201;DHT22;2114;50.398;8.814;2023-03-21T17:25:51;11.30;99.90
4201;DHT22;2114;50.398;8.814;2023-03-21T17:30:52;11.20;99.90
4201;DHT22;2114;50.398;8.814;2023-03-21T17:35:52;11.20;99.90
4201;DHT22;2114;50.398;8.814;2023-03-21T17:40:53;11.10;99.90
4201;DHT22;2114;50.398;8.814;2023-03-21T17:45:53;11.00;99.90
4201;DHT22;2114;50.398;8.814;2023-03-21T17:50:54;10.90;99.90
4201;DHT22;2114;50.398;8.814;2023-03-21T17:55:56;10.80;99.90
4201;DHT22;2114;50.398;8.814;2023-03-21T18:00:57;10.70;99.90
4201;DHT22;2114;50.398;8.814;2023-03-21T18:05:58;10.60;99.90
4201;DHT22;2114;50.398;8.814;2023-03-21T18:10:58;10.50;99.90
4201;DHT22;2114;50.398;8.814;2023-03-21T18:15:59;10.40;99.90
4201;DHT22;2114;50.398;8.814;2023-03-21T18:20:59;10.30;99.90
4201;DHT22;2114;50.398;8.814;2023-03-21T18:26:00;10.20;99.90
4201;DHT22;2114;50.398;8.814;2023-03-21T18:31:00;10.10;99.90
4201;DHT22;2114;50.398;8.814;2023-03-21T18:36:01;10.00;99.90
4201;DHT22;2114;50.398;8.814;2023-03-21T18:41:01;9.90;99.90
4201;DHT22;2114;50.398;8.814;2023-03-21T18:46:04;9.80;99.90
4201;DHT22;2114;50.398;8.814;2023-03-21T18:51:05;9.70;99.90
4201;DHT22;2114;50.398;8.814;2023-03-21T18:56:06;9.60;99.90
4201;DHT22;2114;50.398;8.814;2023-03-21T19:01:07;9.60;99.90
4201;DHT22;2114;50.398;8.814;2023-03-21T19:06:07;9.60;99.90
4201;DHT22;2114;50.398;8.814;2023-03-21T19:11:08;9.60;99.90
4201;DHT22;2114;50.398;8.814;2023-03-21T19:16:09;9.60;99.90
4201;DHT22;2114;50.398;8.814;2023-03-21T19:21:10;9.60;99.90
4201;DHT22;2114;50.398;8.814;2023-03-21T19:26:10;9.70;99.90
4201;DHT22;2114;50.398;8.814;2023-03-21T19:31:11;9.70;99.90
4201;DHT22;2114;50.398;8.814;2023-03-21T19:36:12;9.70;99.90
4201;DHT22;2114;50.398;8.814;2023-03-21T19:41:12;9.80;99.90
4201;DHT22;2114;50.398;8.814;2023-03-21T19:46:13;9.80;99.90
4201;DHT22;2114;50.398;8.814;2023-03-21T19:51:16;9.80;99.90
4201;DHT22;2114;50.398;8.814;2023-03-21T19:56:17;9.70;99.90
4201;DHT22;2114;50.398;8.814;2023-03-21T20:01:18;9.70;99.90
4201;DHT22;2114;50.398;8.814;2023-03-21T20:06:19;9.70;99.90
4201;DHT22;2114;50.398;8.814;2023-03-21T20:11:21;9.60;99.90
4201;DHT22;2114;50.398;8.814;2023-03-21T20:16:22;9.60;99.90
4201;DHT22;2114;50.398;8.814;2023-03-21T20:21:22;9.50;99.90
4201;DHT22;2114;50.398;8.814;2023-03-21T20:26:25;9.50;99.90
4201;DHT22;2114;50.398;8.814;2023-03-21T20:31:25;9.50;99.90
4201;DHT22;2114;50.398;8.814;2023-03-21T20:36:26;9.50;99.90
4201;DHT22;2114;50.398;8.814;2023-03-21T20:41:27;9.50;99.90
4201;DHT22;2114;50.398;8.814;2023-03-21T20:46:27;9.50;99.90
4201;DHT22;2114;50.398;8.814;2023-03-21T20:51:28;9.40;99.90
4201;DHT22;2114;50.398;8.814;2023-03-21T20:56:29;9.40;99.90
4201;DHT22;2114;50.398;8.814;2023-03-21T21:01:30;9.40;99.90
4201;DHT22;2114;50.398;8.814;2023-03-21T21:06:31;9.30;99.90
4201;DHT22;2114;50.398;8.814;2023-03-21T21:11:31;9.30;99.90
4201;DHT22;2114;50.398;8.814;2023-03-21T21:16:32;9.30;99.90
4201;DHT22;2114;50.398;8.814;2023-03-21T21:21:33;9.30;99.90
4201;DHT22;2114;50.398;8.814;2023-03-21T21:26:33;9.20;99.90
4201;DHT22;2114;50.398;8.814;2023-03-21T21:31:34;9.20;99.90
4201;DHT22;2114;50.398;8.814;2023-03-21T21:36:35;9.20;99.90
4201;DHT22;2114;50.398;8.814;2023-03-21T21:41:35;9.20;99.90
4201;DHT22;2114;50.398;8.814;2023-03-21T21:46:36;9.20;99.90
4201;DHT22;2114;50.398;8.814;2023-03-21T21:51:37;9.20;99.90
4201;DHT22;2114;50.398;8.814;2023-03-21T21:56:40;9.20;99.90
4201;DHT22;2114;50.398;8.814;2023-03-21T22:01:41;9.10;99.90
4201;DHT22;2114;50.398;8.814;2023-03-21T22:06:42;9.10;99.90
4201;DHT22;2114;50.398;8.814;2023-03-21T22:11:42;9.00;99.90
4201;DHT22;2114;50.398;8.814;2023-03-21T22:16:43;9.00;99.90
4201;DHT22;2114;50.398;8.814;2023-03-21T22:21:43;8.90;99.90
4201;DHT22;2114;50.398;8.814;2023-03-21T22:26:44;8.90;99.90
4201;DHT22;2114;50.398;8.814;2023-03-21T22:31:45;8.80;99.90
4201;DHT22;2114;50.398;8.814;2023-03-21T22:36:46;8.70;99.90
4201;DHT22;2114;50.398;8.814;2023-03-21T22:41:49;8.60;99.90
4201;DHT22;2114;50.398;8.814;2023-03-21T22:46:50;8.60;99.90
4201;DHT22;2114;50.398;8.814;2023-03-21T22:51:50;8.50;99.90
4201;DHT22;2114;50.398;8.814;2023-03-21T22:56:51;8.40;99.90
4201;DHT22;2114;50.398;8.814;2023-03-21T23:01:52;8.30;99.90
4201;DHT22;2114;50.398;8.814;2023-03-21T23:06:52;8.30;99.90
4201;DHT22;2114;50.398;8.814;2023-03-21T23:11:53;8.20;99.90
4201;DHT22;2114;50.398;8.814;2023-03-21T23:16:54;8.10;99.90
4201;DHT22;2114;50.398;8.814;2023-03-21T23:21:59;8.10;99.90
4201;DHT22;2114;50.398;8.814;2023-03-21T23:27:00;8.00;99.90
4201;DHT22;2114;50.398;8.814;2023-03-21T23:32:01;7.90;99.90
4201;DHT22;2114;50.398;8.814;2023-03-21T23:37:01;7.90;99.90
4201;DHT22;2114;50.398;8.814;2023-03-21T23:42:02;7.90;99.90
4201;DHT22;2114;50.398;8.814;2023-03-21T23:47:03;7.90;99.90
4201;DHT22;2114;50.398;8.814;2023-03-21T23:52:04;7.80;99.90
4201;DHT22;2114;50.398;8.814;2023-03-21T23:57:04;7.80;99.90
